| time (UTC) | temp F | wind direction | speed MPH | gust MPH | rain 1hr in | rain 24hr in | rain mn in | humidity % | barometer mb |
| 20260502233022 | 41 | 293 | 12.0 | 15.0 | 0.00 | 0.00 | 0.00 | 11 | 1013.3 |
| 20260502231522 | 41 | 289 | 11.0 | 15.0 | 0.00 | 0.00 | 0.00 | 13 | 1013.1 |
| 20260502230013 | 41 | 277 | 8.0 | 12.0 | 0.00 | 0.00 | 0.00 | 18 | 1013.2 |
| 20260502224508 | 42 | 272 | 6.0 | 12.0 | 0.00 | 0.00 | 0.00 | 20 | 1013.1 |
| 20260502223004 | 42 | 286 | 11.0 | 15.0 | 0.00 | 0.00 | 0.00 | 16 | 1013.2 |
| 20260502221559 | 42 | 270 | 10.0 | 14.0 | 0.00 | 0.00 | 0.00 | 18 | 1013.2 |
| 20260502214551 | 43 | 275 | 10.0 | 13.0 | 0.00 | 0.00 | 0.00 | 28 | 1013.4 |
| 20260502213049 | 43 | 283 | 10.0 | 19.0 | 0.00 | 0.00 | 0.00 | 29 | 1013.4 |
| 20260502211541 | 43 | 286 | 14.0 | 19.0 | 0.00 | 0.00 | 0.00 | 34 | 1013.4 |
| 20260502210040 | 44 | 245 | 5.0 | 19.0 | 0.00 | 0.00 | 0.00 | 46 | 1013.4 |
| 20260502204532 | 44 | 278 | 11.0 | 18.0 | 0.00 | 0.00 | 0.00 | 53 | 1013.3 |
| 20260502203030 | 44 | 255 | 6.0 | 13.0 | 0.00 | 0.00 | 0.00 | 57 | 1013.5 |
| 20260502201534 | 44 | 287 | 5.0 | 12.0 | 0.00 | 0.00 | 0.00 | 58 | 1013.9 |
| 20260502200019 | 45 | 264 | 7.0 | 15.0 | 0.00 | 0.00 | 0.00 | 61 | 1014.0 |
| 20260502194514 | 45 | 265 | 5.0 | 13.0 | 0.00 | 0.00 | 0.00 | 60 | 1014.1 |
| 20260502193010 | 44 | 284 | 4.0 | 10.0 | 0.00 | 0.00 | 0.00 | 60 | 1014.3 |
| 20260502191506 | 44 | 286 | 7.0 | 19.0 | 0.00 | 0.00 | 0.00 | 59 | 1014.5 |
| 20260502190000 | 44 | 294 | 12.0 | 17.0 | 0.00 | 0.00 | 0.00 | 60 | 1014.7 |
| 20260502184603 | 45 | 286 | 13.0 | 20.0 | 0.00 | 0.00 | 0.00 | 62 | 1014.7 |
| 20260502183055 | 46 | 288 | 14.0 | 23.0 | 0.00 | 0.00 | 0.00 | 63 | 1014.7 |
| 20260502181550 | 46 | 279 | 9.0 | 19.0 | 0.00 | 0.00 | 0.00 | 63 | 1014.6 |
| 20260502163017 | 47 | 211 | 5.0 | 13.0 | 0.00 | 0.00 | 0.00 | 63 | 1015.7 |
| 20260502161512 | 48 | 155 | 1.0 | 14.0 | 0.00 | 0.00 | 0.00 | 63 | 1015.9 |
| 20260502151612 | 49 | 194 | 5.0 | 14.0 | 0.00 | 0.00 | 0.00 | 62 | 1016.7 |
| 20260502123005 | 43 | 244 | 6.0 | 13.0 | 0.00 | 0.00 | 0.00 | 64 | 1019.4 |
| 20260502121503 | 44 | 270 | 4.0 | 11.0 | 0.00 | 0.00 | 0.00 | 64 | 1019.5 |
| 20260502114554 | 44 | 273 | 3.0 | 11.0 | 0.00 | 0.00 | 0.00 | 63 | 1019.5 |
| 20260502113058 | 43 | 271 | 3.0 | 9.0 | 0.00 | 0.00 | 0.00 | 63 | 1019.7 |
| 20260502111544 | 43 | 254 | 4.0 | 10.0 | 0.00 | 0.00 | 0.00 | 62 | 1019.9 |
| 20260502110043 | 43 | 194 | 2.0 | 14.0 | 0.00 | 0.00 | 0.00 | 63 | 1020.0 |
| 20260502104538 | 41 | 209 | 4.0 | 15.0 | 0.00 | 0.00 | 0.00 | 64 | 1020.0 |
| 20260502103031 | 39 | 5 | 0.0 | 3.0 | 0.00 | 0.00 | 0.00 | 63 | 1020.2 |
| 20260502101527 | 39 | 13 | 0.0 | 1.0 | 0.00 | 0.00 | 0.00 | 65 | 1020.5 |
| 20260502091515 | 42 | 29 | 2.0 | 3.0 | 0.00 | 0.00 | 0.00 | 63 | 1020.8 |
| 20260502071533 | 33 | 28 | 3.0 | 5.0 | 0.00 | 0.00 | 0.00 | 17 | 1021.3 |
| 20260502070050 | 31 | 30 | 0.0 | 2.0 | 0.00 | 0.00 | 0.00 | 7 | 1021.4 |
| 20260502064524 | 28 | 32 | 0.0 | 1.0 | 0.00 | 0.00 | 0.00 | 15 | 1021.4 |
| 20260502063026 | 26 | 36 | 0.0 | 0.0 | 0.00 | 0.00 | 0.00 | 31 | 1021.3 |
| 20260502061517 | 27 | 36 | 0.0 | 0.0 | 0.00 | 0.00 | 0.00 | 35 | 1021.2 |
| 20260502060025 | 28 | 36 | 0.0 | 2.0 | 0.00 | 0.00 | 0.00 | 32 | 1021.3 |
| 20260502054507 | 28 | 36 | 2.0 | 5.0 | 0.00 | 0.00 | 0.00 | 30 | 1021.5 |
| 20260502053003 | 30 | 34 | 3.0 | 9.0 | 0.00 | 0.00 | 0.00 | 27 | 1021.5 |
| 20260502051603 | 31 | 344 | 6.0 | 9.0 | 0.00 | 0.00 | 0.00 | 18 | 1021.6 |
| 20260502050053 | 31 | 329 | 7.0 | 10.0 | 0.00 | 0.00 | 0.00 | 22 | 1021.7 |
| 20260502044549 | 31 | 326 | 6.0 | 10.0 | 0.00 | 0.00 | 0.00 | 27 | 1021.7 |
| 20260502043058 | 32 | 305 | 10.0 | 12.0 | 0.00 | 0.00 | 0.00 | 30 | 1021.6 |
| 20260502041605 | 32 | 316 | 11.0 | 14.0 | 0.00 | 0.00 | 0.00 | 19 | 1021.5 |
| 20260502040049 | 31 | 327 | 11.0 | 13.0 | 0.00 | 0.00 | 0.00 | 4 | 1021.5 |
| 20260502034530 | 29 | 321 | 9.0 | 11.0 | 0.00 | 0.00 | 0.00 | 7 | 1021.6 |
| 20260502033032 | 28 | 318 | 4.0 | 6.0 | 0.00 | 0.00 | 0.00 | 23 | 1021.7 |
| 20260502031521 | 28 | 295 | 1.0 | 4.0 | 0.00 | 0.00 | 0.00 | 24 | 1021.7 |
| 20260502030019 | 28 | 5 | 0.0 | 3.0 | 0.00 | 0.00 | 0.00 | 25 | 1021.8 |
| 20260502024515 | 28 | 5 | 0.0 | 5.0 | 0.00 | 0.00 | 0.00 | 24 | 1021.7 |
| 20260502023023 | 28 | 11 | 3.0 | 5.0 | 0.00 | 0.00 | 0.00 | 17 | 1021.7 |
| 20260502021507 | 28 | 17 | 1.0 | 3.0 | 0.00 | 0.00 | 0.00 | 21 | 1021.7 |
| 20260502020003 | 26 | 26 | 3.0 | 4.0 | 0.00 | 0.00 | 0.00 | 31 | 1021.8 |
| 20260502014607 | 26 | 38 | 0.0 | 0.0 | 0.00 | 0.00 | 0.00 | 37 | 1021.7 |
| 20260502013101 | 27 | 40 | 0.0 | 2.0 | 0.00 | 0.00 | 0.00 | 44 | 1021.8 |
| 20260502011605 | 27 | 40 | 0.0 | 0.0 | 0.00 | 0.00 | 0.00 | 49 | 1021.8 |
| 20260502010051 | 28 | 40 | 0.0 | 1.0 | 0.00 | 0.00 | 0.00 | 55 | 1021.8 |
| 20260502004547 | 29 | 40 | 0.0 | 0.0 | 0.00 | 0.00 | 0.00 | 61 | 1021.8 |
| 20260502003044 | 29 | 40 | 0.0 | 1.0 | 0.00 | 0.00 | 0.00 | 63 | 1021.7 |
| 20260502001552 | 30 | 40 | 0.0 | 3.0 | 0.00 | 0.00 | 0.00 | 61 | 1021.8 |
| 20260502000056 | 29 | 41 | 2.0 | 4.0 | 0.00 | 0.00 | 0.00 | 62 | 1021.8 |
| 20260501234535 | 30 | 34 | 0.0 | 4.0 | 0.00 | 0.00 | 0.00 | 63 | 1021.7 |